sensor_id;sensor_type;location;lat;lon;timestamp;P1;durP1;ratioP1;P2;durP2;ratioP2
10059;SDS011;5069;49.306;8.636;2023-06-14T00:01:21;6.37;;;4.40;;
10059;SDS011;5069;49.306;8.636;2023-06-14T00:04:23;4.77;;;4.20;;
10059;SDS011;5069;49.306;8.636;2023-06-14T00:07:33;5.17;;;4.03;;
10059;SDS011;5069;49.306;8.636;2023-06-14T00:10:40;7.97;;;4.47;;
10059;SDS011;5069;49.306;8.636;2023-06-14T00:13:43;7.27;;;4.60;;
10059;SDS011;5069;49.306;8.636;2023-06-14T00:16:44;6.27;;;4.20;;
10059;SDS011;5069;49.306;8.636;2023-06-14T00:19:46;8.73;;;4.50;;
10059;SDS011;5069;49.306;8.636;2023-06-14T00:22:48;5.00;;;4.50;;
10059;SDS011;5069;49.306;8.636;2023-06-14T00:25:49;6.60;;;4.53;;
10059;SDS011;5069;49.306;8.636;2023-06-14T00:28:51;7.93;;;4.57;;
10059;SDS011;5069;49.306;8.636;2023-06-14T00:31:53;5.90;;;4.57;;
10059;SDS011;5069;49.306;8.636;2023-06-14T00:34:55;9.40;;;4.70;;
10059;SDS011;5069;49.306;8.636;2023-06-14T00:37:56;5.77;;;4.37;;
10059;SDS011;5069;49.306;8.636;2023-06-14T00:40:58;5.70;;;4.23;;
10059;SDS011;5069;49.306;8.636;2023-06-14T00:43:59;5.17;;;4.10;;
10059;SDS011;5069;49.306;8.636;2023-06-14T00:47:01;8.77;;;4.70;;
10059;SDS011;5069;49.306;8.636;2023-06-14T00:50:03;6.57;;;4.93;;
10059;SDS011;5069;49.306;8.636;2023-06-14T00:53:08;6.33;;;4.53;;
10059;SDS011;5069;49.306;8.636;2023-06-14T00:56:09;5.10;;;4.50;;
10059;SDS011;5069;49.306;8.636;2023-06-14T00:59:14;8.77;;;4.23;;
10059;SDS011;5069;49.306;8.636;2023-06-14T01:02:17;7.53;;;4.50;;
10059;SDS011;5069;49.306;8.636;2023-06-14T01:05:21;6.37;;;4.63;;
10059;SDS011;5069;49.306;8.636;2023-06-14T01:08:24;6.73;;;4.40;;
10059;SDS011;5069;49.306;8.636;2023-06-14T01:11:59;5.83;;;4.50;;
10059;SDS011;5069;49.306;8.636;2023-06-14T01:15:15;6.20;;;4.70;;
10059;SDS011;5069;49.306;8.636;2023-06-14T01:18:17;9.63;;;4.70;;
10059;SDS011;5069;49.306;8.636;2023-06-14T01:21:20;5.47;;;4.33;;
10059;SDS011;5069;49.306;8.636;2023-06-14T01:24:22;6.30;;;4.63;;
10059;SDS011;5069;49.306;8.636;2023-06-14T01:27:26;6.07;;;4.50;;
10059;SDS011;5069;49.306;8.636;2023-06-14T01:30:33;5.13;;;4.53;;
10059;SDS011;5069;49.306;8.636;2023-06-14T01:33:35;7.23;;;4.40;;
10059;SDS011;5069;49.306;8.636;2023-06-14T01:36:37;5.80;;;4.43;;
10059;SDS011;5069;49.306;8.636;2023-06-14T01:39:42;4.90;;;4.43;;
10059;SDS011;5069;49.306;8.636;2023-06-14T01:42:44;7.10;;;4.57;;
10059;SDS011;5069;49.306;8.636;2023-06-14T01:45:48;7.90;;;4.70;;
10059;SDS011;5069;49.306;8.636;2023-06-14T01:48:52;6.03;;;4.10;;
10059;SDS011;5069;49.306;8.636;2023-06-14T01:51:54;10.93;;;4.10;;
10059;SDS011;5069;49.306;8.636;2023-06-14T01:54:56;8.77;;;4.57;;
10059;SDS011;5069;49.306;8.636;2023-06-14T01:57:57;5.13;;;4.60;;
10059;SDS011;5069;49.306;8.636;2023-06-14T02:01:00;5.77;;;4.70;;
10059;SDS011;5069;49.306;8.636;2023-06-14T02:04:02;9.50;;;4.50;;
10059;SDS011;5069;49.306;8.636;2023-06-14T02:07:04;11.30;;;4.57;;
10059;SDS011;5069;49.306;8.636;2023-06-14T02:10:05;6.93;;;4.60;;
10059;SDS011;5069;49.306;8.636;2023-06-14T02:13:07;6.73;;;4.60;;
10059;SDS011;5069;49.306;8.636;2023-06-14T02:16:08;5.00;;;4.27;;
10059;SDS011;5069;49.306;8.636;2023-06-14T02:19:11;6.93;;;4.53;;
10059;SDS011;5069;49.306;8.636;2023-06-14T02:22:13;5.77;;;4.50;;
10059;SDS011;5069;49.306;8.636;2023-06-14T02:25:16;4.57;;;4.20;;
10059;SDS011;5069;49.306;8.636;2023-06-14T02:28:17;6.23;;;4.30;;
10059;SDS011;5069;49.306;8.636;2023-06-14T02:31:19;6.93;;;4.57;;
10059;SDS011;5069;49.306;8.636;2023-06-14T02:34:22;6.17;;;4.73;;
10059;SDS011;5069;49.306;8.636;2023-06-14T02:37:24;4.50;;;4.10;;
10059;SDS011;5069;49.306;8.636;2023-06-14T02:40:27;6.83;;;4.60;;
10059;SDS011;5069;49.306;8.636;2023-06-14T02:43:30;6.03;;;4.27;;
10059;SDS011;5069;49.306;8.636;2023-06-14T02:46:32;6.40;;;4.60;;
10059;SDS011;5069;49.306;8.636;2023-06-14T02:49:34;6.50;;;4.30;;
10059;SDS011;5069;49.306;8.636;2023-06-14T02:52:36;5.47;;;4.53;;
10059;SDS011;5069;49.306;8.636;2023-06-14T02:55:38;5.37;;;4.87;;
10059;SDS011;5069;49.306;8.636;2023-06-14T02:58:41;7.37;;;4.53;;
10059;SDS011;5069;49.306;8.636;2023-06-14T03:01:43;6.00;;;4.97;;
10059;SDS011;5069;49.306;8.636;2023-06-14T03:04:47;7.60;;;5.30;;
10059;SDS011;5069;49.306;8.636;2023-06-14T03:07:51;6.33;;;4.80;;
10059;SDS011;5069;49.306;8.636;2023-06-14T03:10:55;4.80;;;4.17;;
10059;SDS011;5069;49.306;8.636;2023-06-14T03:13:58;6.23;;;4.40;;
10059;SDS011;5069;49.306;8.636;2023-06-14T03:17:01;6.63;;;4.87;;
10059;SDS011;5069;49.306;8.636;2023-06-14T03:20:04;5.63;;;4.43;;
10059;SDS011;5069;49.306;8.636;2023-06-14T03:23:07;6.43;;;5.00;;
10059;SDS011;5069;49.306;8.636;2023-06-14T03:26:08;5.00;;;4.50;;
10059;SDS011;5069;49.306;8.636;2023-06-14T03:29:10;7.93;;;4.60;;
10059;SDS011;5069;49.306;8.636;2023-06-14T03:32:12;6.53;;;4.97;;
10059;SDS011;5069;49.306;8.636;2023-06-14T03:35:16;6.97;;;4.67;;
10059;SDS011;5069;49.306;8.636;2023-06-14T03:38:21;8.20;;;5.20;;
10059;SDS011;5069;49.306;8.636;2023-06-14T03:41:24;9.70;;;5.47;;
10059;SDS011;5069;49.306;8.636;2023-06-14T03:44:27;7.70;;;5.20;;
10059;SDS011;5069;49.306;8.636;2023-06-14T03:47:29;12.77;;;5.93;;
10059;SDS011;5069;49.306;8.636;2023-06-14T03:50:31;10.07;;;5.83;;
10059;SDS011;5069;49.306;8.636;2023-06-14T03:53:33;7.80;;;5.40;;
10059;SDS011;5069;49.306;8.636;2023-06-14T03:56:45;9.53;;;5.50;;
10059;SDS011;5069;49.306;8.636;2023-06-14T03:59:48;11.13;;;5.67;;
10059;SDS011;5069;49.306;8.636;2023-06-14T04:02:49;12.47;;;6.37;;
10059;SDS011;5069;49.306;8.636;2023-06-14T04:05:52;9.30;;;6.00;;
10059;SDS011;5069;49.306;8.636;2023-06-14T04:08:58;8.10;;;5.77;;
10059;SDS011;5069;49.306;8.636;2023-06-14T04:12:05;8.87;;;5.97;;
10059;SDS011;5069;49.306;8.636;2023-06-14T04:15:07;6.97;;;5.67;;
10059;SDS011;5069;49.306;8.636;2023-06-14T04:18:24;6.37;;;5.70;;
10059;SDS011;5069;49.306;8.636;2023-06-14T04:21:25;7.13;;;5.70;;
10059;SDS011;5069;49.306;8.636;2023-06-14T04:24:31;9.17;;;5.87;;
10059;SDS011;5069;49.306;8.636;2023-06-14T04:27:37;9.97;;;6.20;;
10059;SDS011;5069;49.306;8.636;2023-06-14T04:30:40;7.90;;;6.00;;
10059;SDS011;5069;49.306;8.636;2023-06-14T04:33:42;9.40;;;6.37;;
10059;SDS011;5069;49.306;8.636;2023-06-14T04:36:51;7.30;;;5.67;;
10059;SDS011;5069;49.306;8.636;2023-06-14T04:40:02;7.27;;;5.60;;
10059;SDS011;5069;49.306;8.636;2023-06-14T04:43:06;8.13;;;5.73;;
10059;SDS011;5069;49.306;8.636;2023-06-14T04:46:08;11.40;;;6.23;;
10059;SDS011;5069;49.306;8.636;2023-06-14T04:49:12;9.60;;;6.13;;
10059;SDS011;5069;49.306;8.636;2023-06-14T04:52:16;8.63;;;6.23;;
10059;SDS011;5069;49.306;8.636;2023-06-14T04:55:19;7.97;;;6.30;;
10059;SDS011;5069;49.306;8.636;2023-06-14T04:58:21;12.63;;;6.73;;
10059;SDS011;5069;49.306;8.636;2023-06-14T05:01:22;8.90;;;6.33;;
10059;SDS011;5069;49.306;8.636;2023-06-14T05:04:27;9.93;;;6.50;;
10059;SDS011;5069;49.306;8.636;2023-06-14T05:07:30;12.37;;;6.50;;
10059;SDS011;5069;49.306;8.636;2023-06-14T05:10:32;15.00;;;6.40;;
10059;SDS011;5069;49.306;8.636;2023-06-14T05:13:36;9.73;;;6.53;;
10059;SDS011;5069;49.306;8.636;2023-06-14T05:16:37;8.47;;;6.40;;
10059;SDS011;5069;49.306;8.636;2023-06-14T05:19:40;8.00;;;6.73;;
10059;SDS011;5069;49.306;8.636;2023-06-14T05:22:42;8.37;;;6.40;;
10059;SDS011;5069;49.306;8.636;2023-06-14T05:25:43;8.27;;;6.07;;
10059;SDS011;5069;49.306;8.636;2023-06-14T05:28:46;7.33;;;6.53;;
10059;SDS011;5069;49.306;8.636;2023-06-14T05:31:47;9.70;;;6.37;;
10059;SDS011;5069;49.306;8.636;2023-06-14T05:34:49;11.27;;;6.37;;
10059;SDS011;5069;49.306;8.636;2023-06-14T05:37:51;7.27;;;5.67;;
10059;SDS011;5069;49.306;8.636;2023-06-14T05:40:52;7.07;;;5.53;;
10059;SDS011;5069;49.306;8.636;2023-06-14T05:43:55;10.37;;;5.07;;
10059;SDS011;5069;49.306;8.636;2023-06-14T05:46:57;7.47;;;5.10;;
10059;SDS011;5069;49.306;8.636;2023-06-14T05:49:59;10.93;;;4.90;;
10059;SDS011;5069;49.306;8.636;2023-06-14T05:53:00;6.10;;;5.07;;
10059;SDS011;5069;49.306;8.636;2023-06-14T05:56:02;5.70;;;5.20;;
10059;SDS011;5069;49.306;8.636;2023-06-14T05:59:03;5.30;;;4.67;;
10059;SDS011;5069;49.306;8.636;2023-06-14T06:02:05;9.13;;;5.10;;
10059;SDS011;5069;49.306;8.636;2023-06-14T06:05:06;5.97;;;4.87;;
10059;SDS011;5069;49.306;8.636;2023-06-14T06:08:08;11.97;;;5.00;;
10059;SDS011;5069;49.306;8.636;2023-06-14T06:11:10;7.37;;;4.70;;
10059;SDS011;5069;49.306;8.636;2023-06-14T06:14:12;6.70;;;5.00;;
10059;SDS011;5069;49.306;8.636;2023-06-14T06:17:13;8.00;;;5.07;;
10059;SDS011;5069;49.306;8.636;2023-06-14T06:20:15;6.37;;;4.63;;
10059;SDS011;5069;49.306;8.636;2023-06-14T06:23:17;7.57;;;4.80;;
10059;SDS011;5069;49.306;8.636;2023-06-14T06:26:18;6.03;;;5.10;;
10059;SDS011;5069;49.306;8.636;2023-06-14T06:29:20;5.10;;;4.60;;
10059;SDS011;5069;49.306;8.636;2023-06-14T06:32:21;5.70;;;4.53;;
10059;SDS011;5069;49.306;8.636;2023-06-14T06:35:23;6.93;;;4.73;;
10059;SDS011;5069;49.306;8.636;2023-06-14T06:38:25;6.37;;;4.73;;
10059;SDS011;5069;49.306;8.636;2023-06-14T06:41:26;5.27;;;4.80;;
10059;SDS011;5069;49.306;8.636;2023-06-14T06:44:28;6.70;;;4.30;;
10059;SDS011;5069;49.306;8.636;2023-06-14T06:47:30;8.07;;;4.17;;
10059;SDS011;5069;49.306;8.636;2023-06-14T06:50:31;5.03;;;4.27;;
10059;SDS011;5069;49.306;8.636;2023-06-14T06:53:33;5.10;;;4.53;;
10059;SDS011;5069;49.306;8.636;2023-06-14T06:56:43;7.83;;;4.57;;
10059;SDS011;5069;49.306;8.636;2023-06-14T06:59:44;6.10;;;4.40;;
10059;SDS011;5069;49.306;8.636;2023-06-14T07:02:46;5.40;;;4.20;;
10059;SDS011;5069;49.306;8.636;2023-06-14T07:05:48;6.37;;;4.10;;
10059;SDS011;5069;49.306;8.636;2023-06-14T07:08:49;6.27;;;4.47;;
10059;SDS011;5069;49.306;8.636;2023-06-14T07:11:51;5.13;;;4.63;;
10059;SDS011;5069;49.306;8.636;2023-06-14T07:14:53;8.53;;;4.60;;
10059;SDS011;5069;49.306;8.636;2023-06-14T07:17:54;9.07;;;4.60;;
10059;SDS011;5069;49.306;8.636;2023-06-14T07:21:01;5.33;;;4.13;;
10059;SDS011;5069;49.306;8.636;2023-06-14T07:24:03;6.73;;;4.30;;
10059;SDS011;5069;49.306;8.636;2023-06-14T07:27:07;5.20;;;4.50;;
10059;SDS011;5069;49.306;8.636;2023-06-14T07:30:09;8.30;;;4.03;;
10059;SDS011;5069;49.306;8.636;2023-06-14T07:33:11;7.20;;;4.40;;
10059;SDS011;5069;49.306;8.636;2023-06-14T07:36:13;6.77;;;4.30;;
10059;SDS011;5069;49.306;8.636;2023-06-14T07:39:15;4.97;;;4.47;;
10059;SDS011;5069;49.306;8.636;2023-06-14T07:42:16;8.07;;;4.57;;
10059;SDS011;5069;49.306;8.636;2023-06-14T07:45:18;5.83;;;4.40;;
10059;SDS011;5069;49.306;8.636;2023-06-14T07:48:20;5.20;;;4.00;;
10059;SDS011;5069;49.306;8.636;2023-06-14T07:51:22;7.73;;;4.37;;
10059;SDS011;5069;49.306;8.636;2023-06-14T07:54:24;9.43;;;4.47;;
10059;SDS011;5069;49.306;8.636;2023-06-14T07:57:27;7.47;;;4.40;;
10059;SDS011;5069;49.306;8.636;2023-06-14T08:00:29;5.67;;;4.40;;
10059;SDS011;5069;49.306;8.636;2023-06-14T08:03:32;6.13;;;4.40;;
10059;SDS011;5069;49.306;8.636;2023-06-14T08:06:33;4.60;;;4.20;;
10059;SDS011;5069;49.306;8.636;2023-06-14T08:09:35;5.13;;;4.20;;
10059;SDS011;5069;49.306;8.636;2023-06-14T08:12:39;8.70;;;4.10;;
10059;SDS011;5069;49.306;8.636;2023-06-14T08:15:40;7.30;;;4.40;;
10059;SDS011;5069;49.306;8.636;2023-06-14T08:18:42;6.63;;;4.37;;
10059;SDS011;5069;49.306;8.636;2023-06-14T08:21:43;6.90;;;4.20;;
10059;SDS011;5069;49.306;8.636;2023-06-14T08:24:45;5.20;;;4.17;;
10059;SDS011;5069;49.306;8.636;2023-06-14T08:27:46;4.27;;;3.87;;
10059;SDS011;5069;49.306;8.636;2023-06-14T08:30:48;5.03;;;4.53;;
10059;SDS011;5069;49.306;8.636;2023-06-14T08:33:49;4.90;;;4.40;;
10059;SDS011;5069;49.306;8.636;2023-06-14T08:36:51;4.97;;;4.30;;
10059;SDS011;5069;49.306;8.636;2023-06-14T08:39:52;5.15;;;4.45;;
10059;SDS011;5069;49.306;8.636;2023-06-14T08:42:54;14.63;;;9.00;;
10059;SDS011;5069;49.306;8.636;2023-06-14T08:46:00;14.02;;;11.80;;
10059;SDS011;5069;49.306;8.636;2023-06-14T08:49:03;17.27;;;8.75;;
10059;SDS011;5069;49.306;8.636;2023-06-14T08:52:08;5.70;;;4.63;;
10059;SDS011;5069;49.306;8.636;2023-06-14T08:55:12;8.93;;;4.07;;
10059;SDS011;5069;49.306;8.636;2023-06-14T08:58:14;7.95;;;4.22;;
10059;SDS011;5069;49.306;8.636;2023-06-14T09:01:16;6.63;;;4.60;;
10059;SDS011;5069;49.306;8.636;2023-06-14T09:04:19;6.55;;;4.70;;
10059;SDS011;5069;49.306;8.636;2023-06-14T09:07:20;11.15;;;4.30;;
10059;SDS011;5069;49.306;8.636;2023-06-14T09:10:22;4.40;;;4.00;;
10059;SDS011;5069;49.306;8.636;2023-06-14T09:13:27;5.07;;;4.18;;
10059;SDS011;5069;49.306;8.636;2023-06-14T09:16:32;6.72;;;4.20;;
10059;SDS011;5069;49.306;8.636;2023-06-14T09:19:34;6.00;;;4.20;;
10059;SDS011;5069;49.306;8.636;2023-06-14T09:22:37;6.53;;;4.40;;
10059;SDS011;5069;49.306;8.636;2023-06-14T09:25:42;4.00;;;3.60;;
10059;SDS011;5069;49.306;8.636;2023-06-14T09:28:47;4.53;;;3.90;;
10059;SDS011;5069;49.306;8.636;2023-06-14T09:31:49;4.20;;;3.80;;
10059;SDS011;5069;49.306;8.636;2023-06-14T09:34:52;6.22;;;3.88;;
10059;SDS011;5069;49.306;8.636;2023-06-14T09:37:54;6.38;;;4.25;;
10059;SDS011;5069;49.306;8.636;2023-06-14T09:40:57;5.32;;;3.92;;
10059;SDS011;5069;49.306;8.636;2023-06-14T09:44:00;5.63;;;4.22;;
10059;SDS011;5069;49.306;8.636;2023-06-14T09:47:07;4.50;;;4.00;;
10059;SDS011;5069;49.306;8.636;2023-06-14T09:50:09;4.75;;;4.13;;
10059;SDS011;5069;49.306;8.636;2023-06-14T09:53:11;9.13;;;3.90;;
10059;SDS011;5069;49.306;8.636;2023-06-14T09:56:13;7.25;;;4.25;;
10059;SDS011;5069;49.306;8.636;2023-06-14T09:59:25;5.63;;;3.70;;
10059;SDS011;5069;49.306;8.636;2023-06-14T10:02:34;7.88;;;3.97;;
10059;SDS011;5069;49.306;8.636;2023-06-14T10:05:39;5.60;;;3.92;;
10059;SDS011;5069;49.306;8.636;2023-06-14T10:08:44;4.47;;;3.80;;
10059;SDS011;5069;49.306;8.636;2023-06-14T10:11:47;4.78;;;3.63;;
10059;SDS011;5069;49.306;8.636;2023-06-14T10:14:49;4.03;;;3.40;;
10059;SDS011;5069;49.306;8.636;2023-06-14T10:17:59;5.65;;;3.90;;
10059;SDS011;5069;49.306;8.636;2023-06-14T10:21:23;5.88;;;3.72;;
10059;SDS011;5069;49.306;8.636;2023-06-14T10:24:33;5.78;;;3.70;;
10059;SDS011;5069;49.306;8.636;2023-06-14T10:27:44;6.25;;;3.28;;
10059;SDS011;5069;49.306;8.636;2023-06-14T10:34:07;4.18;;;3.80;;
10059;SDS011;5069;49.306;8.636;2023-06-14T10:37:13;5.18;;;3.50;;
10059;SDS011;5069;49.306;8.636;2023-06-14T10:40:30;4.70;;;3.22;;
10059;SDS011;5069;49.306;8.636;2023-06-14T10:43:32;5.38;;;3.42;;
10059;SDS011;5069;49.306;8.636;2023-06-14T10:46:33;6.97;;;3.83;;
10059;SDS011;5069;49.306;8.636;2023-06-14T10:49:42;6.00;;;3.45;;
10059;SDS011;5069;49.306;8.636;2023-06-14T10:52:45;3.92;;;3.53;;
10059;SDS011;5069;49.306;8.636;2023-06-14T10:55:47;4.13;;;3.42;;
10059;SDS011;5069;49.306;8.636;2023-06-14T10:58:49;4.22;;;3.42;;
10059;SDS011;5069;49.306;8.636;2023-06-14T11:02:18;5.25;;;3.35;;
10059;SDS011;5069;49.306;8.636;2023-06-14T11:12:24;5.97;;;3.90;;
10059;SDS011;5069;49.306;8.636;2023-06-14T11:15:32;6.22;;;3.40;;
10059;SDS011;5069;49.306;8.636;2023-06-14T11:18:35;4.13;;;3.72;;
10059;SDS011;5069;49.306;8.636;2023-06-14T11:21:39;3.75;;;3.35;;
10059;SDS011;5069;49.306;8.636;2023-06-14T11:24:42;4.23;;;3.03;;
10059;SDS011;5069;49.306;8.636;2023-06-14T11:27:44;3.45;;;3.15;;
10059;SDS011;5069;49.306;8.636;2023-06-14T11:30:46;3.92;;;3.53;;
10059;SDS011;5069;49.306;8.636;2023-06-14T11:33:58;4.07;;;3.67;;
10059;SDS011;5069;49.306;8.636;2023-06-14T11:37:01;4.47;;;3.37;;
10059;SDS011;5069;49.306;8.636;2023-06-14T11:40:03;5.43;;;3.53;;
10059;SDS011;5069;49.306;8.636;2023-06-14T11:43:12;3.85;;;3.53;;
10059;SDS011;5069;49.306;8.636;2023-06-14T11:46:15;3.88;;;3.38;;
10059;SDS011;5069;49.306;8.636;2023-06-14T11:49:18;3.55;;;3.25;;
10059;SDS011;5069;49.306;8.636;2023-06-14T11:52:19;4.18;;;3.80;;
10059;SDS011;5069;49.306;8.636;2023-06-14T11:55:21;6.47;;;3.65;;
10059;SDS011;5069;49.306;8.636;2023-06-14T11:58:23;4.80;;;3.58;;
10059;SDS011;5069;49.306;8.636;2023-06-14T12:01:24;5.57;;;3.72;;
10059;SDS011;5069;49.306;8.636;2023-06-14T12:04:27;4.25;;;3.63;;
10059;SDS011;5069;49.306;8.636;2023-06-14T12:07:28;3.42;;;3.13;;
10059;SDS011;5069;49.306;8.636;2023-06-14T12:10:39;3.53;;;3.22;;
10059;SDS011;5069;49.306;8.636;2023-06-14T12:13:45;4.10;;;3.70;;
10059;SDS011;5069;49.306;8.636;2023-06-14T12:16:46;5.30;;;3.30;;
10059;SDS011;5069;49.306;8.636;2023-06-14T12:19:48;5.47;;;3.42;;
10059;SDS011;5069;49.306;8.636;2023-06-14T12:22:54;4.20;;;3.40;;
10059;SDS011;5069;49.306;8.636;2023-06-14T12:25:58;3.70;;;3.40;;
10059;SDS011;5069;49.306;8.636;2023-06-14T12:29:01;6.50;;;3.80;;
10059;SDS011;5069;49.306;8.636;2023-06-14T12:32:06;5.57;;;3.65;;
10059;SDS011;5069;49.306;8.636;2023-06-14T12:35:08;4.70;;;3.30;;
10059;SDS011;5069;49.306;8.636;2023-06-14T12:38:10;3.92;;;3.58;;
10059;SDS011;5069;49.306;8.636;2023-06-14T12:41:11;6.40;;;3.05;;
10059;SDS011;5069;49.306;8.636;2023-06-14T12:44:15;5.70;;;3.45;;
10059;SDS011;5069;49.306;8.636;2023-06-14T12:47:17;3.88;;;3.55;;
10059;SDS011;5069;49.306;8.636;2023-06-14T12:50:19;5.60;;;3.72;;
10059;SDS011;5069;49.306;8.636;2023-06-14T12:53:23;4.65;;;3.67;;
10059;SDS011;5069;49.306;8.636;2023-06-14T12:56:24;6.95;;;3.53;;
10059;SDS011;5069;49.306;8.636;2023-06-14T12:59:27;3.92;;;3.53;;
10059;SDS011;5069;49.306;8.636;2023-06-14T13:02:34;4.60;;;3.40;;
10059;SDS011;5069;49.306;8.636;2023-06-14T13:05:36;4.18;;;3.80;;
10059;SDS011;5069;49.306;8.636;2023-06-14T13:08:38;5.35;;;3.60;;
10059;SDS011;5069;49.306;8.636;2023-06-14T13:11:40;5.38;;;3.42;;
10059;SDS011;5069;49.306;8.636;2023-06-14T13:14:41;4.03;;;3.13;;
10059;SDS011;5069;49.306;8.636;2023-06-14T13:17:43;5.32;;;3.60;;
10059;SDS011;5069;49.306;8.636;2023-06-14T13:20:49;7.68;;;3.78;;
10059;SDS011;5069;49.306;8.636;2023-06-14T13:23:51;6.05;;;3.75;;
10059;SDS011;5069;49.306;8.636;2023-06-14T13:26:53;4.32;;;3.50;;
10059;SDS011;5069;49.306;8.636;2023-06-14T13:29:55;5.32;;;3.67;;
10059;SDS011;5069;49.306;8.636;2023-06-14T13:32:56;9.02;;;4.00;;
10059;SDS011;5069;49.306;8.636;2023-06-14T13:35:58;3.85;;;3.53;;
10059;SDS011;5069;49.306;8.636;2023-06-14T13:39:00;4.30;;;3.58;;
10059;SDS011;5069;49.306;8.636;2023-06-14T13:42:01;4.55;;;3.92;;
10059;SDS011;5069;49.306;8.636;2023-06-14T13:45:04;4.88;;;3.70;;
10059;SDS011;5069;49.306;8.636;2023-06-14T13:48:06;5.63;;;3.63;;
10059;SDS011;5069;49.306;8.636;2023-06-14T13:51:08;4.70;;;3.92;;
10059;SDS011;5069;49.306;8.636;2023-06-14T13:54:11;3.75;;;3.40;;
10059;SDS011;5069;49.306;8.636;2023-06-14T13:57:13;4.43;;;3.72;;
10059;SDS011;5069;49.306;8.636;2023-06-14T14:00:15;4.43;;;3.50;;
10059;SDS011;5069;49.306;8.636;2023-06-14T14:03:20;6.45;;;3.47;;
10059;SDS011;5069;49.306;8.636;2023-06-14T14:06:21;4.47;;;3.95;;
10059;SDS011;5069;49.306;8.636;2023-06-14T14:09:23;6.15;;;3.72;;
10059;SDS011;5069;49.306;8.636;2023-06-14T14:12:24;6.18;;;3.92;;
10059;SDS011;5069;49.306;8.636;2023-06-14T14:15:26;4.20;;;3.88;;
10059;SDS011;5069;49.306;8.636;2023-06-14T14:18:28;5.72;;;3.47;;
10059;SDS011;5069;49.306;8.636;2023-06-14T14:21:32;4.30;;;3.90;;
10059;SDS011;5069;49.306;8.636;2023-06-14T14:24:34;8.57;;;4.38;;
10059;SDS011;5069;49.306;8.636;2023-06-14T14:27:36;4.45;;;4.05;;
10059;SDS011;5069;49.306;8.636;2023-06-14T14:30:38;4.50;;;4.05;;
10059;SDS011;5069;49.306;8.636;2023-06-14T14:33:40;4.20;;;3.75;;
10059;SDS011;5069;49.306;8.636;2023-06-14T14:36:42;4.60;;;3.60;;
10059;SDS011;5069;49.306;8.636;2023-06-14T14:39:44;6.30;;;3.80;;
10059;SDS011;5069;49.306;8.636;2023-06-14T14:42:47;4.20;;;3.80;;
10059;SDS011;5069;49.306;8.636;2023-06-14T14:45:48;6.55;;;4.10;;
10059;SDS011;5069;49.306;8.636;2023-06-14T14:48:50;4.32;;;3.92;;
10059;SDS011;5069;49.306;8.636;2023-06-14T14:51:51;3.70;;;3.40;;
10059;SDS011;5069;49.306;8.636;2023-06-14T14:54:53;3.55;;;3.22;;
10059;SDS011;5069;49.306;8.636;2023-06-14T14:57:55;4.10;;;3.70;;
10059;SDS011;5069;49.306;8.636;2023-06-14T15:00:56;3.88;;;3.58;;
10059;SDS011;5069;49.306;8.636;2023-06-14T15:03:58;3.88;;;3.53;;
10059;SDS011;5069;49.306;8.636;2023-06-14T15:07:00;7.28;;;3.80;;
10059;SDS011;5069;49.306;8.636;2023-06-14T15:10:02;5.60;;;3.50;;
10059;SDS011;5069;49.306;8.636;2023-06-14T15:13:03;5.55;;;3.53;;
10059;SDS011;5069;49.306;8.636;2023-06-14T15:16:05;4.32;;;3.92;;
10059;SDS011;5069;49.306;8.636;2023-06-14T15:19:06;4.63;;;3.53;;
10059;SDS011;5069;49.306;8.636;2023-06-14T15:22:08;4.82;;;3.60;;
10059;SDS011;5069;49.306;8.636;2023-06-14T15:25:09;6.57;;;3.78;;
10059;SDS011;5069;49.306;8.636;2023-06-14T15:28:11;6.25;;;3.80;;
10059;SDS011;5069;49.306;8.636;2023-06-14T15:31:12;4.78;;;4.10;;
10059;SDS011;5069;49.306;8.636;2023-06-14T15:34:14;5.78;;;4.03;;
10059;SDS011;5069;49.306;8.636;2023-06-14T15:37:16;5.60;;;4.10;;
10059;SDS011;5069;49.306;8.636;2023-06-14T15:40:18;5.15;;;4.28;;
10059;SDS011;5069;49.306;8.636;2023-06-14T15:43:19;4.60;;;4.10;;
10059;SDS011;5069;49.306;8.636;2023-06-14T15:46:21;4.63;;;3.80;;
10059;SDS011;5069;49.306;8.636;2023-06-14T15:49:23;4.85;;;3.95;;
10059;SDS011;5069;49.306;8.636;2023-06-14T15:52:25;5.72;;;3.80;;
10059;SDS011;5069;49.306;8.636;2023-06-14T15:55:26;6.75;;;3.95;;
10059;SDS011;5069;49.306;8.636;2023-06-14T15:58:28;4.47;;;4.07;;
10059;SDS011;5069;49.306;8.636;2023-06-14T16:01:29;5.68;;;3.95;;
10059;SDS011;5069;49.306;8.636;2023-06-14T16:04:31;4.38;;;3.97;;
10059;SDS011;5069;49.306;8.636;2023-06-14T16:07:33;6.00;;;3.88;;
10059;SDS011;5069;49.306;8.636;2023-06-14T16:10:35;4.18;;;3.78;;
10059;SDS011;5069;49.306;8.636;2023-06-14T16:13:38;6.80;;;4.50;;
10059;SDS011;5069;49.306;8.636;2023-06-14T16:16:43;6.85;;;3.75;;
10059;SDS011;5069;49.306;8.636;2023-06-14T16:19:45;4.72;;;4.10;;
10059;SDS011;5069;49.306;8.636;2023-06-14T16:22:46;4.22;;;3.83;;
10059;SDS011;5069;49.306;8.636;2023-06-14T16:25:48;5.18;;;3.78;;
10059;SDS011;5069;49.306;8.636;2023-06-14T16:28:49;6.60;;;4.30;;
10059;SDS011;5069;49.306;8.636;2023-06-14T16:31:51;4.20;;;3.80;;
10059;SDS011;5069;49.306;8.636;2023-06-14T16:34:52;7.32;;;4.30;;
10059;SDS011;5069;49.306;8.636;2023-06-14T16:37:54;4.35;;;3.95;;
10059;SDS011;5069;49.306;8.636;2023-06-14T16:40:55;4.47;;;3.80;;
10059;SDS011;5069;49.306;8.636;2023-06-14T16:43:57;7.45;;;4.20;;
10059;SDS011;5069;49.306;8.636;2023-06-14T16:46:58;7.40;;;4.00;;
10059;SDS011;5069;49.306;8.636;2023-06-14T16:50:01;8.20;;;3.90;;
10059;SDS011;5069;49.306;8.636;2023-06-14T16:53:04;4.38;;;3.80;;
10059;SDS011;5069;49.306;8.636;2023-06-14T16:56:05;4.45;;;3.45;;
10059;SDS011;5069;49.306;8.636;2023-06-14T16:59:07;5.20;;;3.88;;
10059;SDS011;5069;49.306;8.636;2023-06-14T17:02:08;3.90;;;3.60;;
10059;SDS011;5069;49.306;8.636;2023-06-14T17:05:10;4.03;;;3.58;;
10059;SDS011;5069;49.306;8.636;2023-06-14T17:08:12;4.78;;;3.92;;
10059;SDS011;5069;49.306;8.636;2023-06-14T17:11:13;6.57;;;4.00;;
10059;SDS011;5069;49.306;8.636;2023-06-14T17:14:16;5.68;;;3.45;;
10059;SDS011;5069;49.306;8.636;2023-06-14T17:17:17;4.63;;;3.78;;
10059;SDS011;5069;49.306;8.636;2023-06-14T17:20:19;5.18;;;3.75;;
10059;SDS011;5069;49.306;8.636;2023-06-14T17:23:22;7.63;;;4.00;;
10059;SDS011;5069;49.306;8.636;2023-06-14T17:26:24;4.00;;;3.60;;
10059;SDS011;5069;49.306;8.636;2023-06-14T17:29:28;6.93;;;3.65;;
10059;SDS011;5069;49.306;8.636;2023-06-14T17:32:30;4.00;;;3.70;;
10059;SDS011;5069;49.306;8.636;2023-06-14T17:35:31;3.88;;;3.58;;
10059;SDS011;5069;49.306;8.636;2023-06-14T17:38:33;5.22;;;3.53;;
10059;SDS011;5069;49.306;8.636;2023-06-14T17:41:35;6.68;;;4.00;;
10059;SDS011;5069;49.306;8.636;2023-06-14T17:44:36;4.38;;;3.80;;
10059;SDS011;5069;49.306;8.636;2023-06-14T17:47:38;8.50;;;3.72;;
10059;SDS011;5069;49.306;8.636;2023-06-14T17:50:39;5.68;;;3.80;;
10059;SDS011;5069;49.306;8.636;2023-06-14T17:53:41;4.05;;;3.70;;
10059;SDS011;5069;49.306;8.636;2023-06-14T17:56:42;5.78;;;3.47;;
10059;SDS011;5069;49.306;8.636;2023-06-14T17:59:43;5.72;;;4.00;;
10059;SDS011;5069;49.306;8.636;2023-06-14T18:02:45;5.05;;;3.47;;
10059;SDS011;5069;49.306;8.636;2023-06-14T18:05:49;4.20;;;3.83;;
10059;SDS011;5069;49.306;8.636;2023-06-14T18:08:50;4.43;;;3.80;;
10059;SDS011;5069;49.306;8.636;2023-06-14T18:11:52;4.28;;;3.45;;
10059;SDS011;5069;49.306;8.636;2023-06-14T18:14:54;7.32;;;4.60;;
10059;SDS011;5069;49.306;8.636;2023-06-14T18:17:56;4.38;;;3.65;;
10059;SDS011;5069;49.306;8.636;2023-06-14T18:20:57;3.83;;;3.53;;
10059;SDS011;5069;49.306;8.636;2023-06-14T18:24:00;4.63;;;3.75;;
10059;SDS011;5069;49.306;8.636;2023-06-14T18:27:02;4.13;;;3.15;;
10059;SDS011;5069;49.306;8.636;2023-06-14T18:30:07;6.50;;;3.60;;
10059;SDS011;5069;49.306;8.636;2023-06-14T18:33:09;4.38;;;3.30;;
10059;SDS011;5069;49.306;8.636;2023-06-14T18:36:11;4.07;;;3.53;;
10059;SDS011;5069;49.306;8.636;2023-06-14T18:39:13;4.30;;;3.15;;
10059;SDS011;5069;49.306;8.636;2023-06-14T18:42:15;3.47;;;3.13;;
10059;SDS011;5069;49.306;8.636;2023-06-14T18:45:17;5.15;;;3.50;;
10059;SDS011;5069;49.306;8.636;2023-06-14T18:48:18;6.72;;;3.60;;